Time,TemperatureF,DewpointF,PressureIn,WindDirection,WindDirectionDegrees,WindSpeedMPH,WindSpeedGustMPH,Humidity,HourlyPrecipIn,Conditions,Clouds,dailyrainin,SolarRadiationWatts/m^2,SoftwareType,DateUTC
2013-05-30 13:25:00,61.8,60.1,29.73,WNW,300,4.0,5.0,94,0.46,,,0.40,60,Wunderground v.1.15,2013-05-30 19:25:00,
2013-05-30 13:30:00,61.7,60.0,29.72,WNW,302,4.0,5.0,94,0.33,,,0.42,70,Wunderground v.1.15,2013-05-30 19:30:00,
2013-05-30 13:35:00,61.8,60.1,29.72,NW,305,3.0,3.0,94,0.16,,,0.43,58,Wunderground v.1.15,2013-05-30 19:35:00,
2013-05-30 13:39:00,61.8,60.1,29.72,NW,323,2.0,4.0,94,0.14,,,0.43,72,Wunderground v.1.15,2013-05-30 19:39:00,
2013-05-30 13:44:00,61.5,59.8,29.72,NW,307,5.0,5.0,94,0.08,,,0.43,77,Wunderground v.1.15,2013-05-30 19:44:00,
2013-05-30 13:49:00,61.3,59.6,29.72,NW,313,5.0,7.0,94,0.08,,,0.44,111,Wunderground v.1.15,2013-05-30 19:49:00,
2013-05-30 13:54:00,61.0,59.3,29.73,WNW,288,4.0,4.0,94,0.09,,,0.45,65,Wunderground v.1.15,2013-05-30 19:54:00,
2013-05-30 14:00:00,61.1,59.4,29.72,WNW,288,1.0,3.0,94,0.23,,,0.46,63,Wunderground v.1.15,2013-05-30 20:00:00,
2013-05-30 14:05:00,61.1,59.4,29.72,WNW,288,1.0,14.0,94,0.15,,,0.47,49,Wunderground v.1.15,2013-05-30 20:05:00,
2013-05-30 14:10:00,61.2,59.5,29.72,WNW,288,1.0,1.0,94,0.31,,,0.50,39,Wunderground v.1.15,2013-05-30 20:10:00,
2013-05-30 14:15:00,61.2,59.5,29.71,WNW,292,1.0,1.0,94,0.32,,,0.51,44,Wunderground v.1.15,2013-05-30 20:15:00,
2013-05-30 14:20:00,61.2,59.5,29.71,WNW,298,2.0,2.0,94,0.26,,,0.53,100,Wunderground v.1.15,2013-05-30 20:20:00,
2013-05-30 14:25:00,61.2,59.5,29.71,NW,323,1.0,2.0,94,0.11,,,0.53,118,Wunderground v.1.15,2013-05-30 20:25:00,
2013-05-30 14:30:00,61.1,59.4,29.71,NNW,327,2.0,2.0,94,0.11,,,0.54,146,Wunderground v.1.15,2013-05-30 20:30:00,
2013-05-30 14:35:00,61.1,59.4,29.71,NNW,327,1.0,2.0,94,0.10,,,0.54,127,Wunderground v.1.15,2013-05-30 20:35:00,
2013-05-30 14:40:00,61.0,59.3,29.71,NNW,327,1.0,1.0,94,0.07,,,0.55,98,Wunderground v.1.15,2013-05-30 20:40:00,
2013-05-30 14:45:00,61.0,59.3,29.71,NNW,331,1.0,3.0,94,0.07,,,0.55,88,Wunderground v.1.15,2013-05-30 20:45:00,
2013-05-30 14:50:00,60.9,59.5,29.71,NNW,331,1.0,1.0,95,0.10,,,0.56,86,Wunderground v.1.15,2013-05-30 20:50:00,
2013-05-30 14:55:00,60.9,59.5,29.71,NNW,331,0.0,1.0,95,0.06,,,0.56,60,Wunderground v.1.15,2013-05-30 20:55:00,
2013-05-30 15:00:00,60.9,59.5,29.71,NNW,331,0.0,0.0,95,0.05,,,0.57,32,Wunderground v.1.15,2013-05-30 21:00:00,
2013-05-30 15:05:00,61.0,59.6,29.71,NNW,331,0.0,0.0,95,0.05,,,0.57,26,Wunderground v.1.15,2013-05-30 21:05:00,
2013-05-30 15:10:00,61.1,59.7,29.71,NNW,331,0.0,0.0,95,0.08,,,0.57,25,Wunderground v.1.15,2013-05-30 21:10:00,
2013-05-30 15:14:00,61.1,59.7,29.71,NNW,331,0.0,0.0,95,0.30,,,0.60,33,Wunderground v.1.15,2013-05-30 21:14:00,
2013-05-30 15:19:00,61.1,59.7,29.72,NNW,331,0.0,0.0,95,0.35,,,0.62,23,Wunderground v.1.15,2013-05-30 21:19:00,
2013-05-30 15:24:00,61.2,59.8,29.72,NNW,331,0.0,0.0,95,0.28,,,0.64,19,Wunderground v.1.15,2013-05-30 21:24:00,
2013-05-30 15:29:00,61.2,59.8,29.72,NNW,331,0.0,0.0,95,0.28,,,0.66,19,Wunderground v.1.15,2013-05-30 21:29:00,
2013-05-30 15:35:00,61.2,59.8,29.72,NNW,331,0.0,0.0,95,0.25,,,0.68,16,Wunderground v.1.15,2013-05-30 21:35:00,
2013-05-30 15:40:00,61.1,59.7,29.72,NNW,331,0.0,0.0,95,0.34,,,0.70,21,Wunderground v.1.15,2013-05-30 21:40:00,
2013-05-30 15:45:00,61.0,59.6,29.72,NNW,331,0.0,0.0,95,0.34,,,0.72,26,Wunderground v.1.15,2013-05-30 21:45:00,
2013-05-30 15:50:00,60.8,59.4,29.72,NNW,331,0.0,0.0,95,0.28,,,0.73,30,Wunderground v.1.15,2013-05-30 21:50:00,
2013-05-30 15:55:00,60.7,59.3,29.72,NNW,331,0.0,0.0,95,0.26,,,0.75,30,Wunderground v.1.15,2013-05-30 21:55:00,
2013-05-30 16:00:00,60.7,59.3,29.72,NNW,331,0.0,0.0,95,0.23,,,0.76,30,Wunderground v.1.15,2013-05-30 22:00:00,
2013-05-30 16:05:00,60.7,59.3,29.72,NNW,331,0.0,0.0,95,0.20,,,0.78,28,Wunderground v.1.15,2013-05-30 22:05:00,
2013-05-30 16:10:00,60.7,59.3,29.72,NNW,331,0.0,0.0,95,0.16,,,0.79,26,Wunderground v.1.15,2013-05-30 22:10:00,
2013-05-30 16:15:00,60.7,59.3,29.72,NNW,331,0.0,0.0,95,0.22,,,0.80,19,Wunderground v.1.15,2013-05-30 22:15:00,
2013-05-30 16:20:00,60.7,59.3,29.73,NNW,331,0.0,0.0,95,0.26,,,0.82,21,Wunderground v.1.15,2013-05-30 22:20:00,
2013-05-30 16:25:00,60.7,59.3,29.73,NNW,331,0.0,0.0,95,0.17,,,0.83,25,Wunderground v.1.15,2013-05-30 22:25:00,
2013-05-30 16:30:00,60.7,59.3,29.73,NNW,331,0.0,0.0,95,0.19,,,0.84,21,Wunderground v.1.15,2013-05-30 22:30:00,
2013-05-30 16:35:00,60.7,59.3,29.73,NNW,331,0.0,0.0,95,0.17,,,0.86,19,Wunderground v.1.15,2013-05-30 22:35:00,
2013-05-30 16:45:00,60.4,59.0,29.73,WNW,296,2.0,4.0,95,0.33,,,0.89,19,Wunderground v.1.15,2013-05-30 22:45:00,
2013-05-30 16:50:00,60.1,58.7,29.74,WNW,300,4.0,5.0,95,0.16,,,0.90,19,Wunderground v.1.15,2013-05-30 22:50:00,
2013-05-30 16:55:00,59.9,58.2,29.74,WNW,300,3.0,5.0,94,0.08,,,0.90,12,Wunderground v.1.15,2013-05-30 22:55:00,